IST,Max TemperatureF,Mean TemperatureF,Min TemperatureF,Max Dew PointF,MeanDew PointF,Min DewpointF,Max Humidity, Mean Humidity, Min Humidity, Max Sea Level PressureIn, Mean Sea Level PressureIn, Min Sea Level PressureIn, Max VisibilityMiles, Mean VisibilityMiles, Min VisibilityMiles, Max Wind SpeedMPH, Mean Wind SpeedMPH, Max Gust SpeedMPH,PrecipitationIn, CloudCover, Events, WindDirDegrees
2011-9-1,66,58,50,57,52,48,94,81,64,29.95,29.84,29.74,6,6,6,20,9,,0.00,5,,139
2011-9-2,64,60,57,59,55,52,100,84,64,29.77,29.72,29.62,6,6,2,14,10,,0.00,6,Rain,211
2011-9-3,62,56,51,59,53,46,100,84,59,29.68,29.63,29.56,6,6,2,16,11,,0.00,5,Rain,234
2011-9-4,60,55,50,52,48,43,94,82,55,29.68,29.53,29.44,6,6,4,26,13,36,0.00,5,Rain,189
2011-9-5,60,56,51,57,53,48,100,89,77,29.77,29.69,29.53,6,6,2,26,14,32,0.00,6,Rain,235
2011-9-6,60,56,53,59,53,50,100,86,77,29.77,29.57,29.47,6,6,2,31,22,45,0.00,6,Rain,252
2011-9-7,57,55,53,54,52,50,100,89,77,29.86,29.82,29.74,6,6,2,20,16,,0.00,6,Rain,251
2011-9-8,64,58,53,59,56,54,100,92,73,29.74,29.68,29.65,6,5,2,20,12,,0.00,6,Rain,224
2011-9-9,69,64,59,63,60,57,100,87,68,29.65,29.58,29.39,6,6,2,28,11,,0.00,6,,166
2011-9-10,64,60,55,61,55,46,94,81,64,29.36,29.24,29.18,6,6,2,29,19,40,0.00,5,Rain,176
2011-9-11,62,58,55,61,52,48,94,82,68,29.44,29.33,29.18,6,6,4,31,20,39,0.00,6,Rain,202
2011-9-12,64,60,57,61,52,48,88,76,67,29.71,29.42,29.12,6,6,3,40,28,64,0.00,6,Rain,240
2011-9-13,59,55,50,50,48,45,94,80,63,29.98,29.84,29.71,6,6,5,29,19,41,0.00,4,Rain,254
2011-9-14,57,54,50,52,49,48,94,85,72,30.12,30.08,29.98,6,6,5,17,9,,0.00,5,Rain,265
2011-9-15,60,55,50,54,50,48,94,83,63,30.12,30.02,29.89,6,6,6,17,8,,0.00,6,Rain,127
2011-9-16,60,56,53,55,53,52,100,90,77,29.89,29.72,29.65,6,6,2,28,14,,0.00,6,Rain,194
2011-9-17,57,54,50,54,50,46,94,88,72,29.71,29.66,29.62,6,6,3,24,15,24,0.00,4,Rain,267
2011-9-18,60,56,53,54,52,50,94,85,72,29.95,29.84,29.71,6,6,3,22,17,33,0.00,5,Rain,295
2011-9-19,60,56,51,59,56,50,100,96,88,29.89,29.83,29.77,6,4,1,22,12,,0.00,6,Rain,228
2011-9-20,57,54,50,52,49,45,100,83,63,29.98,29.95,29.86,6,6,4,22,11,,0.00,4,Rain,225
2011-9-21,59,56,53,54,50,48,100,83,77,30.01,29.90,29.83,6,6,3,31,17,41,0.00,5,Rain,229
2011-9-22,62,58,53,54,52,50,94,84,68,30.09,30.04,30.01,6,6,5,18,12,,0.00,6,,234
2011-9-23,62,58,53,55,53,50,94,82,68,30.01,29.82,29.68,6,6,6,23,13,,0.00,6,Rain,163
2011-9-24,64,58,51,52,50,48,94,80,59,29.77,29.75,29.71,6,6,6,15,10,,0.00,3,,183
2011-9-25,60,56,51,57,52,46,94,83,63,29.86,29.68,29.62,6,6,4,23,15,,0.00,6,Rain,186
2011-9-26,60,53,46,54,49,43,94,82,68,30.09,30.01,29.86,6,6,6,17,10,,0.00,5,Rain,156
2011-9-27,68,62,57,59,57,54,94,84,68,30.15,30.12,30.09,6,6,6,25,15,,0.00,5,,156
2011-9-28,66,62,59,59,58,57,94,86,73,30.09,29.99,29.89,6,6,6,23,18,,0.00,5,Rain,145
2011-9-29,66,60,55,61,57,54,94,88,77,30.04,29.98,29.89,6,6,6,25,15,,0.00,5,,146
2011-9-30,62,58,51,61,57,50,100,92,82,30.15,29.98,29.83,6,6,2,17,11,,0.00,6,Rain,261